sensor_id;sensor_type;location;lat;lon;timestamp;P1;durP1;ratioP1;P2;durP2;ratioP2
42702;SDS011;28341;52.064;4.920;2023-09-19T00:01:45;10.35;;;2.58;;
42702;SDS011;28341;52.064;4.920;2023-09-19T00:03:50;8.05;;;2.25;;
42702;SDS011;28341;52.064;4.920;2023-09-19T00:05:55;9.18;;;2.63;;
42702;SDS011;28341;52.064;4.920;2023-09-19T00:08:02;10.65;;;2.75;;
42702;SDS011;28341;52.064;4.920;2023-09-19T00:10:07;9.00;;;2.80;;
42702;SDS011;28341;52.064;4.920;2023-09-19T00:12:12;11.00;;;2.42;;
42702;SDS011;28341;52.064;4.920;2023-09-19T00:14:18;15.82;;;3.20;;
42702;SDS011;28341;52.064;4.920;2023-09-19T00:16:20;13.48;;;2.63;;
42702;SDS011;28341;52.064;4.920;2023-09-19T00:18:28;8.13;;;2.38;;
42702;SDS011;28341;52.064;4.920;2023-09-19T00:20:34;10.45;;;2.78;;
42702;SDS011;28341;52.064;4.920;2023-09-19T00:22:40;15.90;;;3.17;;
42702;SDS011;28341;52.064;4.920;2023-09-19T00:24:42;10.38;;;2.70;;
42702;SDS011;28341;52.064;4.920;2023-09-19T00:26:46;13.23;;;2.70;;
42702;SDS011;28341;52.064;4.920;2023-09-19T00:28:51;10.93;;;2.80;;
42702;SDS011;28341;52.064;4.920;2023-09-19T00:30:57;8.93;;;2.20;;
42702;SDS011;28341;52.064;4.920;2023-09-19T00:33:03;8.68;;;2.53;;
42702;SDS011;28341;52.064;4.920;2023-09-19T00:35:11;12.50;;;2.90;;
42702;SDS011;28341;52.064;4.920;2023-09-19T00:37:15;12.60;;;2.60;;
42702;SDS011;28341;52.064;4.920;2023-09-19T00:39:20;10.32;;;2.55;;
42702;SDS011;28341;52.064;4.920;2023-09-19T00:41:26;9.27;;;2.90;;
42702;SDS011;28341;52.064;4.920;2023-09-19T00:43:30;11.80;;;2.60;;
42702;SDS011;28341;52.064;4.920;2023-09-19T00:45:36;11.30;;;3.13;;
42702;SDS011;28341;52.064;4.920;2023-09-19T00:47:43;12.93;;;2.50;;
42702;SDS011;28341;52.064;4.920;2023-09-19T00:49:49;9.20;;;2.35;;
42702;SDS011;28341;52.064;4.920;2023-09-19T00:51:56;14.20;;;2.78;;
42702;SDS011;28341;52.064;4.920;2023-09-19T00:54:01;11.70;;;2.80;;
42702;SDS011;28341;52.064;4.920;2023-09-19T00:56:04;14.35;;;3.22;;
42702;SDS011;28341;52.064;4.920;2023-09-19T00:58:10;10.63;;;2.50;;
42702;SDS011;28341;52.064;4.920;2023-09-19T01:00:12;9.05;;;2.28;;
42702;SDS011;28341;52.064;4.920;2023-09-19T01:02:20;7.88;;;2.38;;
42702;SDS011;28341;52.064;4.920;2023-09-19T01:04:22;15.82;;;2.60;;
42702;SDS011;28341;52.064;4.920;2023-09-19T01:06:28;10.32;;;2.42;;
42702;SDS011;28341;52.064;4.920;2023-09-19T01:08:34;8.15;;;2.20;;
42702;SDS011;28341;52.064;4.920;2023-09-19T01:10:39;14.57;;;3.60;;
42702;SDS011;28341;52.064;4.920;2023-09-19T01:12:59;13.07;;;2.78;;
42702;SDS011;28341;52.064;4.920;2023-09-19T01:15:06;12.07;;;2.97;;
42702;SDS011;28341;52.064;4.920;2023-09-19T01:17:20;9.93;;;2.45;;
42702;SDS011;28341;52.064;4.920;2023-09-19T01:19:47;15.57;;;3.10;;
42702;SDS011;28341;52.064;4.920;2023-09-19T01:22:09;8.20;;;2.45;;
42702;SDS011;28341;52.064;4.920;2023-09-19T01:24:34;13.23;;;2.70;;
42702;SDS011;28341;52.064;4.920;2023-09-19T01:29:34;11.90;;;2.80;;
42702;SDS011;28341;52.064;4.920;2023-09-19T01:31:46;11.52;;;2.90;;
42702;SDS011;28341;52.064;4.920;2023-09-19T01:33:58;14.40;;;2.67;;
42702;SDS011;28341;52.064;4.920;2023-09-19T01:36:04;9.40;;;2.80;;
42702;SDS011;28341;52.064;4.920;2023-09-19T01:38:09;15.27;;;3.15;;
42702;SDS011;28341;52.064;4.920;2023-09-19T01:40:16;10.40;;;2.67;;
42702;SDS011;28341;52.064;4.920;2023-09-19T01:42:26;13.77;;;2.90;;
42702;SDS011;28341;52.064;4.920;2023-09-19T01:44:50;8.43;;;2.50;;
42702;SDS011;28341;52.064;4.920;2023-09-19T01:47:04;8.95;;;2.55;;
42702;SDS011;28341;52.064;4.920;2023-09-19T01:49:22;10.18;;;3.22;;
42702;SDS011;28341;52.064;4.920;2023-09-19T01:51:37;7.85;;;2.85;;
42702;SDS011;28341;52.064;4.920;2023-09-19T01:53:50;13.73;;;2.75;;
42702;SDS011;28341;52.064;4.920;2023-09-19T01:56:03;11.32;;;2.70;;
42702;SDS011;28341;52.064;4.920;2023-09-19T01:58:15;12.23;;;2.92;;
42702;SDS011;28341;52.064;4.920;2023-09-19T02:00:21;11.23;;;2.45;;
42702;SDS011;28341;52.064;4.920;2023-09-19T02:02:29;12.82;;;3.10;;
42702;SDS011;28341;52.064;4.920;2023-09-19T02:04:34;17.83;;;3.05;;
42702;SDS011;28341;52.064;4.920;2023-09-19T02:06:39;12.77;;;2.60;;
42702;SDS011;28341;52.064;4.920;2023-09-19T02:09:00;14.35;;;2.65;;
42702;SDS011;28341;52.064;4.920;2023-09-19T02:11:04;17.58;;;3.45;;
42702;SDS011;28341;52.064;4.920;2023-09-19T02:13:08;11.18;;;2.80;;
42702;SDS011;28341;52.064;4.920;2023-09-19T02:15:15;13.85;;;3.35;;
42702;SDS011;28341;52.064;4.920;2023-09-19T02:17:20;11.30;;;3.00;;
42702;SDS011;28341;52.064;4.920;2023-09-19T02:19:24;16.00;;;3.67;;
42702;SDS011;28341;52.064;4.920;2023-09-19T02:21:30;18.52;;;3.25;;
42702;SDS011;28341;52.064;4.920;2023-09-19T02:23:34;19.42;;;3.25;;
42702;SDS011;28341;52.064;4.920;2023-09-19T02:25:39;14.98;;;3.45;;
42702;SDS011;28341;52.064;4.920;2023-09-19T02:27:42;17.40;;;3.60;;
42702;SDS011;28341;52.064;4.920;2023-09-19T02:29:47;17.33;;;3.92;;
42702;SDS011;28341;52.064;4.920;2023-09-19T02:31:52;16.27;;;3.17;;
42702;SDS011;28341;52.064;4.920;2023-09-19T02:33:56;15.77;;;3.05;;
42702;SDS011;28341;52.064;4.920;2023-09-19T02:36:03;14.68;;;3.47;;
42702;SDS011;28341;52.064;4.920;2023-09-19T02:38:09;13.45;;;3.22;;
42702;SDS011;28341;52.064;4.920;2023-09-19T02:40:13;16.92;;;3.28;;
42702;SDS011;28341;52.064;4.920;2023-09-19T02:42:22;20.67;;;3.45;;
42702;SDS011;28341;52.064;4.920;2023-09-19T02:44:26;23.73;;;4.13;;
42702;SDS011;28341;52.064;4.920;2023-09-19T02:46:30;20.95;;;3.60;;
42702;SDS011;28341;52.064;4.920;2023-09-19T02:48:37;13.90;;;3.30;;
42702;SDS011;28341;52.064;4.920;2023-09-19T02:50:42;15.13;;;3.03;;
42702;SDS011;28341;52.064;4.920;2023-09-19T02:52:49;18.23;;;3.83;;
42702;SDS011;28341;52.064;4.920;2023-09-19T02:54:53;13.77;;;3.05;;
42702;SDS011;28341;52.064;4.920;2023-09-19T02:56:57;18.40;;;3.67;;
42702;SDS011;28341;52.064;4.920;2023-09-19T02:59:04;12.02;;;3.22;;
42702;SDS011;28341;52.064;4.920;2023-09-19T03:01:09;16.08;;;3.05;;
42702;SDS011;28341;52.064;4.920;2023-09-19T03:03:12;19.48;;;3.47;;
42702;SDS011;28341;52.064;4.920;2023-09-19T03:05:17;18.70;;;3.25;;
42702;SDS011;28341;52.064;4.920;2023-09-19T03:07:21;17.38;;;3.60;;
42702;SDS011;28341;52.064;4.920;2023-09-19T03:09:28;20.60;;;4.05;;
42702;SDS011;28341;52.064;4.920;2023-09-19T03:11:32;13.98;;;2.95;;
42702;SDS011;28341;52.064;4.920;2023-09-19T03:13:37;21.02;;;3.45;;
42702;SDS011;28341;52.064;4.920;2023-09-19T03:15:42;17.42;;;3.67;;
42702;SDS011;28341;52.064;4.920;2023-09-19T03:17:48;15.23;;;3.40;;
42702;SDS011;28341;52.064;4.920;2023-09-19T03:19:55;19.02;;;3.65;;
42702;SDS011;28341;52.064;4.920;2023-09-19T03:21:57;14.25;;;3.50;;
42702;SDS011;28341;52.064;4.920;2023-09-19T03:24:04;16.65;;;3.70;;
42702;SDS011;28341;52.064;4.920;2023-09-19T03:26:12;11.15;;;2.67;;
42702;SDS011;28341;52.064;4.920;2023-09-19T03:28:17;16.92;;;4.07;;
42702;SDS011;28341;52.064;4.920;2023-09-19T03:30:22;23.67;;;3.58;;
42702;SDS011;28341;52.064;4.920;2023-09-19T03:32:27;21.10;;;3.97;;
42702;SDS011;28341;52.064;4.920;2023-09-19T03:34:31;16.50;;;3.25;;
42702;SDS011;28341;52.064;4.920;2023-09-19T03:36:35;18.35;;;3.47;;
42702;SDS011;28341;52.064;4.920;2023-09-19T03:38:41;24.40;;;3.40;;
42702;SDS011;28341;52.064;4.920;2023-09-19T03:40:45;11.05;;;2.80;;
42702;SDS011;28341;52.064;4.920;2023-09-19T03:42:49;19.05;;;3.45;;
42702;SDS011;28341;52.064;4.920;2023-09-19T03:44:54;17.38;;;4.32;;
42702;SDS011;28341;52.064;4.920;2023-09-19T03:47:00;23.90;;;3.78;;
42702;SDS011;28341;52.064;4.920;2023-09-19T03:49:06;17.45;;;3.22;;
42702;SDS011;28341;52.064;4.920;2023-09-19T03:51:10;20.00;;;3.10;;
42702;SDS011;28341;52.064;4.920;2023-09-19T03:53:15;15.85;;;3.85;;
42702;SDS011;28341;52.064;4.920;2023-09-19T03:55:16;19.38;;;3.53;;
42702;SDS011;28341;52.064;4.920;2023-09-19T03:57:21;17.08;;;3.35;;
42702;SDS011;28341;52.064;4.920;2023-09-19T03:59:28;14.60;;;3.20;;
42702;SDS011;28341;52.064;4.920;2023-09-19T04:01:32;17.02;;;3.90;;
42702;SDS011;28341;52.064;4.920;2023-09-19T04:03:37;14.85;;;3.47;;
42702;SDS011;28341;52.064;4.920;2023-09-19T04:05:48;15.55;;;3.33;;
42702;SDS011;28341;52.064;4.920;2023-09-19T04:07:53;18.60;;;3.00;;
42702;SDS011;28341;52.064;4.920;2023-09-19T04:09:57;20.35;;;3.00;;
42702;SDS011;28341;52.064;4.920;2023-09-19T04:12:02;17.23;;;3.35;;
42702;SDS011;28341;52.064;4.920;2023-09-19T04:14:09;21.90;;;3.38;;
42702;SDS011;28341;52.064;4.920;2023-09-19T04:16:16;21.40;;;3.22;;
42702;SDS011;28341;52.064;4.920;2023-09-19T04:18:20;20.98;;;3.45;;
42702;SDS011;28341;52.064;4.920;2023-09-19T04:20:25;12.80;;;3.15;;
42702;SDS011;28341;52.064;4.920;2023-09-19T04:22:30;16.33;;;3.40;;
42702;SDS011;28341;52.064;4.920;2023-09-19T04:24:35;13.63;;;3.22;;
42702;SDS011;28341;52.064;4.920;2023-09-19T04:26:39;12.00;;;3.08;;
42702;SDS011;28341;52.064;4.920;2023-09-19T04:28:45;21.17;;;3.40;;
42702;SDS011;28341;52.064;4.920;2023-09-19T04:30:49;13.57;;;3.30;;
42702;SDS011;28341;52.064;4.920;2023-09-19T04:32:56;14.93;;;3.58;;
42702;SDS011;28341;52.064;4.920;2023-09-19T04:34:59;20.92;;;3.72;;
42702;SDS011;28341;52.064;4.920;2023-09-19T04:37:06;12.25;;;3.45;;
42702;SDS011;28341;52.064;4.920;2023-09-19T04:39:11;17.80;;;3.28;;
42702;SDS011;28341;52.064;4.920;2023-09-19T04:41:17;18.95;;;3.42;;
42702;SDS011;28341;52.064;4.920;2023-09-19T04:43:22;17.60;;;4.25;;
42702;SDS011;28341;52.064;4.920;2023-09-19T04:45:27;12.07;;;2.88;;
42702;SDS011;28341;52.064;4.920;2023-09-19T04:47:32;17.10;;;3.22;;
42702;SDS011;28341;52.064;4.920;2023-09-19T04:49:36;14.85;;;3.53;;
42702;SDS011;28341;52.064;4.920;2023-09-19T04:51:40;14.65;;;2.92;;
42702;SDS011;28341;52.064;4.920;2023-09-19T04:53:47;17.98;;;3.20;;
42702;SDS011;28341;52.064;4.920;2023-09-19T04:55:50;14.85;;;3.30;;
42702;SDS011;28341;52.064;4.920;2023-09-19T04:57:56;13.35;;;3.08;;
42702;SDS011;28341;52.064;4.920;2023-09-19T05:00:00;20.08;;;3.55;;
42702;SDS011;28341;52.064;4.920;2023-09-19T05:02:03;17.17;;;4.07;;
42702;SDS011;28341;52.064;4.920;2023-09-19T05:04:08;15.05;;;3.35;;
42702;SDS011;28341;52.064;4.920;2023-09-19T05:06:15;15.68;;;3.65;;
42702;SDS011;28341;52.064;4.920;2023-09-19T05:08:17;17.27;;;3.58;;
42702;SDS011;28341;52.064;4.920;2023-09-19T05:10:22;15.30;;;3.30;;
42702;SDS011;28341;52.064;4.920;2023-09-19T05:12:26;20.38;;;2.80;;
42702;SDS011;28341;52.064;4.920;2023-09-19T05:14:28;19.17;;;6.22;;
42702;SDS011;28341;52.064;4.920;2023-09-19T05:16:33;25.05;;;9.93;;
42702;SDS011;28341;52.064;4.920;2023-09-19T05:18:37;17.40;;;6.65;;
42702;SDS011;28341;52.064;4.920;2023-09-19T05:20:38;22.35;;;6.45;;
42702;SDS011;28341;52.064;4.920;2023-09-19T05:22:46;21.80;;;8.38;;
42702;SDS011;28341;52.064;4.920;2023-09-19T05:24:50;23.55;;;6.47;;
42702;SDS011;28341;52.064;4.920;2023-09-19T05:26:55;20.58;;;3.58;;
42702;SDS011;28341;52.064;4.920;2023-09-19T05:28:59;16.95;;;3.38;;
42702;SDS011;28341;52.064;4.920;2023-09-19T05:31:05;17.77;;;6.65;;
42702;SDS011;28341;52.064;4.920;2023-09-19T05:33:09;21.70;;;7.35;;
42702;SDS011;28341;52.064;4.920;2023-09-19T05:35:14;14.10;;;3.35;;
42702;SDS011;28341;52.064;4.920;2023-09-19T05:37:18;17.35;;;3.40;;
42702;SDS011;28341;52.064;4.920;2023-09-19T05:39:26;14.98;;;3.03;;
42702;SDS011;28341;52.064;4.920;2023-09-19T05:41:28;13.60;;;3.30;;
42702;SDS011;28341;52.064;4.920;2023-09-19T05:43:32;16.20;;;2.92;;
42702;SDS011;28341;52.064;4.920;2023-09-19T05:45:37;12.68;;;2.92;;
42702;SDS011;28341;52.064;4.920;2023-09-19T05:47:42;17.33;;;3.25;;
42702;SDS011;28341;52.064;4.920;2023-09-19T05:49:47;15.20;;;3.20;;
42702;SDS011;28341;52.064;4.920;2023-09-19T05:51:52;14.68;;;3.20;;
42702;SDS011;28341;52.064;4.920;2023-09-19T05:53:59;19.35;;;2.97;;
42702;SDS011;28341;52.064;4.920;2023-09-19T05:56:07;19.23;;;3.75;;
42702;SDS011;28341;52.064;4.920;2023-09-19T05:58:14;21.85;;;3.42;;
42702;SDS011;28341;52.064;4.920;2023-09-19T06:00:18;16.58;;;3.45;;
42702;SDS011;28341;52.064;4.920;2023-09-19T06:02:23;23.45;;;3.50;;
42702;SDS011;28341;52.064;4.920;2023-09-19T06:04:29;18.30;;;3.88;;
42702;SDS011;28341;52.064;4.920;2023-09-19T06:06:33;17.17;;;3.63;;
42702;SDS011;28341;52.064;4.920;2023-09-19T06:08:40;18.33;;;3.72;;
42702;SDS011;28341;52.064;4.920;2023-09-19T06:10:45;15.07;;;3.60;;
42702;SDS011;28341;52.064;4.920;2023-09-19T06:12:55;18.92;;;3.20;;
42702;SDS011;28341;52.064;4.920;2023-09-19T06:14:59;15.05;;;4.00;;
42702;SDS011;28341;52.064;4.920;2023-09-19T06:17:05;16.33;;;3.63;;
42702;SDS011;28341;52.064;4.920;2023-09-19T06:19:09;15.93;;;3.88;;
42702;SDS011;28341;52.064;4.920;2023-09-19T06:21:13;18.77;;;4.20;;
42702;SDS011;28341;52.064;4.920;2023-09-19T06:23:15;20.95;;;6.20;;
42702;SDS011;28341;52.064;4.920;2023-09-19T06:25:20;19.05;;;8.23;;
42702;SDS011;28341;52.064;4.920;2023-09-19T06:27:25;23.92;;;6.88;;
42702;SDS011;28341;52.064;4.920;2023-09-19T06:29:32;17.52;;;3.65;;
42702;SDS011;28341;52.064;4.920;2023-09-19T06:31:38;27.42;;;12.23;;
42702;SDS011;28341;52.064;4.920;2023-09-19T06:33:43;45.85;;;25.35;;
42702;SDS011;28341;52.064;4.920;2023-09-19T06:35:47;23.33;;;5.22;;
42702;SDS011;28341;52.064;4.920;2023-09-19T06:37:53;25.13;;;4.88;;
42702;SDS011;28341;52.064;4.920;2023-09-19T06:39:58;19.95;;;4.13;;
42702;SDS011;28341;52.064;4.920;2023-09-19T06:42:04;22.17;;;3.83;;
42702;SDS011;28341;52.064;4.920;2023-09-19T06:44:09;20.23;;;4.05;;
42702;SDS011;28341;52.064;4.920;2023-09-19T06:46:16;17.30;;;3.75;;
42702;SDS011;28341;52.064;4.920;2023-09-19T06:48:20;18.98;;;4.25;;
42702;SDS011;28341;52.064;4.920;2023-09-19T06:50:25;25.58;;;4.97;;
42702;SDS011;28341;52.064;4.920;2023-09-19T06:52:33;24.77;;;5.07;;
42702;SDS011;28341;52.064;4.920;2023-09-19T06:54:37;21.92;;;4.10;;
42702;SDS011;28341;52.064;4.920;2023-09-19T06:56:42;25.80;;;10.10;;
42702;SDS011;28341;52.064;4.920;2023-09-19T06:58:45;52.83;;;30.10;;
42702;SDS011;28341;52.064;4.920;2023-09-19T07:00:49;19.15;;;4.65;;
42702;SDS011;28341;52.064;4.920;2023-09-19T07:03:00;23.83;;;4.40;;
42702;SDS011;28341;52.064;4.920;2023-09-19T07:05:11;18.80;;;4.22;;
42702;SDS011;28341;52.064;4.920;2023-09-19T07:07:13;17.38;;;3.67;;
42702;SDS011;28341;52.064;4.920;2023-09-19T07:09:17;21.27;;;4.03;;
42702;SDS011;28341;52.064;4.920;2023-09-19T07:11:23;18.40;;;4.20;;
42702;SDS011;28341;52.064;4.920;2023-09-19T07:13:27;24.00;;;4.40;;
42702;SDS011;28341;52.064;4.920;2023-09-19T07:15:32;20.73;;;4.10;;
42702;SDS011;28341;52.064;4.920;2023-09-19T07:17:39;18.23;;;4.13;;
42702;SDS011;28341;52.064;4.920;2023-09-19T07:19:46;22.55;;;4.70;;
42702;SDS011;28341;52.064;4.920;2023-09-19T07:21:50;20.92;;;3.70;;
42702;SDS011;28341;52.064;4.920;2023-09-19T07:23:55;16.20;;;3.60;;
42702;SDS011;28341;52.064;4.920;2023-09-19T07:25:59;22.45;;;3.90;;
42702;SDS011;28341;52.064;4.920;2023-09-19T07:28:05;21.63;;;4.60;;
42702;SDS011;28341;52.064;4.920;2023-09-19T07:30:07;18.77;;;4.05;;
42702;SDS011;28341;52.064;4.920;2023-09-19T07:32:12;18.65;;;3.63;;
42702;SDS011;28341;52.064;4.920;2023-09-19T07:34:17;23.15;;;4.35;;
42702;SDS011;28341;52.064;4.920;2023-09-19T07:36:24;21.90;;;3.90;;
42702;SDS011;28341;52.064;4.920;2023-09-19T07:38:26;19.15;;;4.07;;
42702;SDS011;28341;52.064;4.920;2023-09-19T07:40:30;19.40;;;4.80;;
42702;SDS011;28341;52.064;4.920;2023-09-19T07:42:31;24.80;;;4.53;;
42702;SDS011;28341;52.064;4.920;2023-09-19T07:44:37;19.17;;;4.47;;
42702;SDS011;28341;52.064;4.920;2023-09-19T07:46:41;19.40;;;4.45;;
42702;SDS011;28341;52.064;4.920;2023-09-19T07:48:45;17.45;;;4.18;;
42702;SDS011;28341;52.064;4.920;2023-09-19T07:50:49;23.65;;;4.47;;
42702;SDS011;28341;52.064;4.920;2023-09-19T07:52:56;20.17;;;3.97;;
42702;SDS011;28341;52.064;4.920;2023-09-19T07:55:00;22.55;;;4.47;;
42702;SDS011;28341;52.064;4.920;2023-09-19T07:57:09;20.15;;;5.47;;
42702;SDS011;28341;52.064;4.920;2023-09-19T07:59:15;33.53;;;10.73;;
42702;SDS011;28341;52.064;4.920;2023-09-19T08:01:19;20.30;;;4.18;;
42702;SDS011;28341;52.064;4.920;2023-09-19T08:03:24;20.35;;;3.92;;
42702;SDS011;28341;52.064;4.920;2023-09-19T08:05:28;19.85;;;5.22;;
42702;SDS011;28341;52.064;4.920;2023-09-19T08:07:33;16.08;;;3.97;;
42702;SDS011;28341;52.064;4.920;2023-09-19T08:09:39;18.25;;;4.10;;
42702;SDS011;28341;52.064;4.920;2023-09-19T08:11:46;26.27;;;4.60;;
42702;SDS011;28341;52.064;4.920;2023-09-19T08:13:50;26.70;;;4.78;;
42702;SDS011;28341;52.064;4.920;2023-09-19T08:15:55;24.67;;;4.38;;
42702;SDS011;28341;52.064;4.920;2023-09-19T08:17:59;25.42;;;4.93;;
42702;SDS011;28341;52.064;4.920;2023-09-19T08:20:04;17.65;;;4.43;;
42702;SDS011;28341;52.064;4.920;2023-09-19T08:22:16;24.48;;;4.80;;
42702;SDS011;28341;52.064;4.920;2023-09-19T08:24:21;18.58;;;4.18;;
42702;SDS011;28341;52.064;4.920;2023-09-19T08:26:30;21.20;;;4.28;;
42702;SDS011;28341;52.064;4.920;2023-09-19T08:28:34;19.42;;;4.40;;
42702;SDS011;28341;52.064;4.920;2023-09-19T08:30:41;23.67;;;4.40;;
42702;SDS011;28341;52.064;4.920;2023-09-19T08:32:45;21.20;;;4.75;;
42702;SDS011;28341;52.064;4.920;2023-09-19T08:34:50;19.23;;;3.92;;
42702;SDS011;28341;52.064;4.920;2023-09-19T08:36:54;22.70;;;4.40;;
42702;SDS011;28341;52.064;4.920;2023-09-19T08:38:59;20.17;;;4.88;;
42702;SDS011;28341;52.064;4.920;2023-09-19T08:41:05;19.88;;;4.18;;
42702;SDS011;28341;52.064;4.920;2023-09-19T08:43:13;21.80;;;4.82;;
42702;SDS011;28341;52.064;4.920;2023-09-19T08:45:17;21.52;;;4.28;;
42702;SDS011;28341;52.064;4.920;2023-09-19T08:47:19;18.67;;;4.05;;
42702;SDS011;28341;52.064;4.920;2023-09-19T08:49:32;22.10;;;4.63;;
42702;SDS011;28341;52.064;4.920;2023-09-19T08:51:45;19.92;;;4.40;;
42702;SDS011;28341;52.064;4.920;2023-09-19T08:53:51;16.85;;;4.32;;
42702;SDS011;28341;52.064;4.920;2023-09-19T08:56:02;19.85;;;4.18;;
42702;SDS011;28341;52.064;4.920;2023-09-19T08:58:08;16.50;;;4.10;;
42702;SDS011;28341;52.064;4.920;2023-09-19T09:00:18;21.08;;;4.85;;
42702;SDS011;28341;52.064;4.920;2023-09-19T09:02:23;20.70;;;4.10;;
42702;SDS011;28341;52.064;4.920;2023-09-19T09:04:28;17.63;;;3.38;;
42702;SDS011;28341;52.064;4.920;2023-09-19T09:06:33;17.73;;;3.83;;
42702;SDS011;28341;52.064;4.920;2023-09-19T09:08:39;15.35;;;3.70;;
42702;SDS011;28341;52.064;4.920;2023-09-19T09:10:44;18.10;;;4.07;;
42702;SDS011;28341;52.064;4.920;2023-09-19T09:12:48;21.23;;;4.20;;
42702;SDS011;28341;52.064;4.920;2023-09-19T09:15:08;19.13;;;3.85;;
42702;SDS011;28341;52.064;4.920;2023-09-19T09:17:17;20.10;;;4.15;;
42702;SDS011;28341;52.064;4.920;2023-09-19T09:19:22;24.73;;;5.25;;
42702;SDS011;28341;52.064;4.920;2023-09-19T09:21:27;17.48;;;4.00;;
42702;SDS011;28341;52.064;4.920;2023-09-19T09:23:39;23.45;;;5.22;;
42702;SDS011;28341;52.064;4.920;2023-09-19T09:25:46;27.58;;;4.68;;
42702;SDS011;28341;52.064;4.920;2023-09-19T09:28:01;19.98;;;4.43;;
42702;SDS011;28341;52.064;4.920;2023-09-19T09:30:10;47.92;;;28.27;;
42702;SDS011;28341;52.064;4.920;2023-09-19T09:32:23;26.58;;;4.53;;
42702;SDS011;28341;52.064;4.920;2023-09-19T09:34:32;26.25;;;8.50;;
42702;SDS011;28341;52.064;4.920;2023-09-19T09:36:37;25.42;;;10.02;;
42702;SDS011;28341;52.064;4.920;2023-09-19T09:38:43;18.98;;;3.53;;
42702;SDS011;28341;52.064;4.920;2023-09-19T09:40:49;19.75;;;4.07;;
42702;SDS011;28341;52.064;4.920;2023-09-19T09:45:18;14.43;;;3.58;;
42702;SDS011;28341;52.064;4.920;2023-09-19T09:47:41;13.65;;;3.33;;
42702;SDS011;28341;52.064;4.920;2023-09-19T09:52:07;16.10;;;3.80;;
42702;SDS011;28341;52.064;4.920;2023-09-19T09:54:17;18.00;;;3.70;;
42702;SDS011;28341;52.064;4.920;2023-09-19T09:56:22;16.80;;;3.67;;
42702;SDS011;28341;52.064;4.920;2023-09-19T09:58:27;18.13;;;3.45;;
42702;SDS011;28341;52.064;4.920;2023-09-19T10:00:38;16.55;;;3.70;;
42702;SDS011;28341;52.064;4.920;2023-09-19T10:02:57;13.38;;;3.17;;
42702;SDS011;28341;52.064;4.920;2023-09-19T10:05:10;14.55;;;3.45;;
42702;SDS011;28341;52.064;4.920;2023-09-19T10:07:25;16.15;;;3.60;;
42702;SDS011;28341;52.064;4.920;2023-09-19T10:09:44;15.88;;;3.50;;
42702;SDS011;28341;52.064;4.920;2023-09-19T10:11:58;18.38;;;3.65;;
42702;SDS011;28341;52.064;4.920;2023-09-19T10:14:09;19.38;;;3.53;;
42702;SDS011;28341;52.064;4.920;2023-09-19T10:16:18;20.10;;;3.50;;
42702;SDS011;28341;52.064;4.920;2023-09-19T10:18:23;18.48;;;3.65;;
42702;SDS011;28341;52.064;4.920;2023-09-19T10:20:30;19.35;;;3.88;;
42702;SDS011;28341;52.064;4.920;2023-09-19T10:22:38;14.52;;;3.40;;
42702;SDS011;28341;52.064;4.920;2023-09-19T10:24:46;17.38;;;3.42;;
42702;SDS011;28341;52.064;4.920;2023-09-19T10:26:52;11.50;;;2.88;;
42702;SDS011;28341;52.064;4.920;2023-09-19T10:28:58;15.05;;;2.80;;
42702;SDS011;28341;52.064;4.920;2023-09-19T10:31:04;15.25;;;2.80;;
42702;SDS011;28341;52.064;4.920;2023-09-19T10:33:12;16.33;;;2.85;;
42702;SDS011;28341;52.064;4.920;2023-09-19T10:35:15;14.27;;;3.13;;
42702;SDS011;28341;52.064;4.920;2023-09-19T10:37:20;14.98;;;2.30;;
42702;SDS011;28341;52.064;4.920;2023-09-19T10:39:27;11.38;;;3.50;;
42702;SDS011;28341;52.064;4.920;2023-09-19T10:41:34;10.98;;;2.55;;
42702;SDS011;28341;52.064;4.920;2023-09-19T10:43:39;15.65;;;2.70;;
42702;SDS011;28341;52.064;4.920;2023-09-19T10:45:45;14.45;;;2.70;;
42702;SDS011;28341;52.064;4.920;2023-09-19T10:47:52;15.95;;;3.05;;
42702;SDS011;28341;52.064;4.920;2023-09-19T10:49:59;14.45;;;2.88;;
42702;SDS011;28341;52.064;4.920;2023-09-19T10:52:05;10.30;;;2.38;;
42702;SDS011;28341;52.064;4.920;2023-09-19T10:54:13;12.88;;;2.90;;
42702;SDS011;28341;52.064;4.920;2023-09-19T10:56:22;13.88;;;2.80;;
42702;SDS011;28341;52.064;4.920;2023-09-19T10:58:28;13.63;;;2.90;;
42702;SDS011;28341;52.064;4.920;2023-09-19T11:00:46;12.80;;;2.72;;
42702;SDS011;28341;52.064;4.920;2023-09-19T11:05:26;8.60;;;1.67;;
42702;SDS011;28341;52.064;4.920;2023-09-19T11:07:30;14.15;;;2.20;;
42702;SDS011;28341;52.064;4.920;2023-09-19T11:09:45;7.05;;;1.77;;
42702;SDS011;28341;52.064;4.920;2023-09-19T11:11:52;8.98;;;2.17;;
42702;SDS011;28341;52.064;4.920;2023-09-19T11:16:19;11.45;;;2.53;;
42702;SDS011;28341;52.064;4.920;2023-09-19T11:23:45;13.77;;;1.80;;
42702;SDS011;28341;52.064;4.920;2023-09-19T11:26:41;10.00;;;2.13;;
42702;SDS011;28341;52.064;4.920;2023-09-19T11:28:50;12.23;;;2.28;;
42702;SDS011;28341;52.064;4.920;2023-09-19T11:36:48;11.18;;;1.80;;
42702;SDS011;28341;52.064;4.920;2023-09-19T11:38:59;18.60;;;2.58;;
42702;SDS011;28341;52.064;4.920;2023-09-19T11:43:44;8.48;;;2.10;;
42702;SDS011;28341;52.064;4.920;2023-09-19T11:48:10;6.75;;;1.88;;
42702;SDS011;28341;52.064;4.920;2023-09-19T11:50:16;6.88;;;2.33;;
42702;SDS011;28341;52.064;4.920;2023-09-19T11:52:24;12.60;;;2.35;;
42702;SDS011;28341;52.064;4.920;2023-09-19T11:54:34;9.90;;;2.20;;
42702;SDS011;28341;52.064;4.920;2023-09-19T11:56:44;9.23;;;1.90;;
42702;SDS011;28341;52.064;4.920;2023-09-19T11:58:51;7.50;;;2.08;;
42702;SDS011;28341;52.064;4.920;2023-09-19T12:01:00;7.63;;;2.20;;
42702;SDS011;28341;52.064;4.920;2023-09-19T12:03:07;11.68;;;1.67;;
42702;SDS011;28341;52.064;4.920;2023-09-19T12:05:14;8.13;;;2.08;;
42702;SDS011;28341;52.064;4.920;2023-09-19T12:07:22;9.52;;;2.42;;
42702;SDS011;28341;52.064;4.920;2023-09-19T12:09:26;10.73;;;2.00;;
42702;SDS011;28341;52.064;4.920;2023-09-19T12:11:30;9.95;;;2.47;;
42702;SDS011;28341;52.064;4.920;2023-09-19T12:13:43;10.38;;;2.20;;
42702;SDS011;28341;52.064;4.920;2023-09-19T12:15:46;7.25;;;1.90;;
42702;SDS011;28341;52.064;4.920;2023-09-19T12:17:50;9.13;;;1.95;;
42702;SDS011;28341;52.064;4.920;2023-09-19T12:19:56;8.90;;;1.63;;
42702;SDS011;28341;52.064;4.920;2023-09-19T12:22:01;11.10;;;1.60;;
42702;SDS011;28341;52.064;4.920;2023-09-19T12:24:11;11.93;;;2.25;;
42702;SDS011;28341;52.064;4.920;2023-09-19T12:26:13;10.82;;;2.10;;
42702;SDS011;28341;52.064;4.920;2023-09-19T12:28:17;15.63;;;1.83;;
42702;SDS011;28341;52.064;4.920;2023-09-19T12:30:26;10.00;;;2.15;;
42702;SDS011;28341;52.064;4.920;2023-09-19T12:32:33;10.20;;;2.08;;
42702;SDS011;28341;52.064;4.920;2023-09-19T12:34:40;7.28;;;1.60;;
42702;SDS011;28341;52.064;4.920;2023-09-19T12:36:45;8.63;;;1.95;;
42702;SDS011;28341;52.064;4.920;2023-09-19T12:38:49;7.82;;;1.50;;
42702;SDS011;28341;52.064;4.920;2023-09-19T12:40:53;7.85;;;1.42;;
42702;SDS011;28341;52.064;4.920;2023-09-19T12:43:00;9.85;;;1.98;;
42702;SDS011;28341;52.064;4.920;2023-09-19T12:45:05;6.90;;;1.73;;
42702;SDS011;28341;52.064;4.920;2023-09-19T12:47:13;5.75;;;1.15;;
42702;SDS011;28341;52.064;4.920;2023-09-19T12:49:24;6.82;;;1.85;;
42702;SDS011;28341;52.064;4.920;2023-09-19T12:51:34;12.70;;;1.30;;
42702;SDS011;28341;52.064;4.920;2023-09-19T12:53:39;12.50;;;1.90;;
42702;SDS011;28341;52.064;4.920;2023-09-19T12:55:45;6.03;;;1.00;;
42702;SDS011;28341;52.064;4.920;2023-09-19T12:57:56;4.80;;;1.20;;
42702;SDS011;28341;52.064;4.920;2023-09-19T13:00:12;9.13;;;1.45;;
42702;SDS011;28341;52.064;4.920;2023-09-19T13:02:20;8.45;;;1.50;;